sensor_id;sensor_type;location;lat;lon;timestamp;P1;durP1;ratioP1;P2;durP2;ratioP2
57605;SDS011;43430;48.204;11.556;2023-05-10T00:00:04;2.63;;;0.60;;
57605;SDS011;43430;48.204;11.556;2023-05-10T00:02:30;4.15;;;0.70;;
57605;SDS011;43430;48.204;11.556;2023-05-10T00:04:55;2.72;;;0.38;;
57605;SDS011;43430;48.204;11.556;2023-05-10T00:07:20;1.20;;;0.35;;
57605;SDS011;43430;48.204;11.556;2023-05-10T00:09:46;2.33;;;0.65;;
57605;SDS011;43430;48.204;11.556;2023-05-10T00:12:11;2.70;;;0.60;;
57605;SDS011;43430;48.204;11.556;2023-05-10T00:14:37;1.23;;;0.20;;
57605;SDS011;43430;48.204;11.556;2023-05-10T00:17:02;1.70;;;0.60;;
57605;SDS011;43430;48.204;11.556;2023-05-10T00:19:27;1.73;;;0.40;;
57605;SDS011;43430;48.204;11.556;2023-05-10T00:21:53;2.90;;;0.50;;
57605;SDS011;43430;48.204;11.556;2023-05-10T00:24:18;1.60;;;0.50;;
57605;SDS011;43430;48.204;11.556;2023-05-10T00:26:43;1.13;;;0.47;;
57605;SDS011;43430;48.204;11.556;2023-05-10T00:29:09;1.75;;;0.50;;
57605;SDS011;43430;48.204;11.556;2023-05-10T00:31:34;1.88;;;0.50;;
57605;SDS011;43430;48.204;11.556;2023-05-10T00:33:59;1.90;;;0.55;;
57605;SDS011;43430;48.204;11.556;2023-05-10T00:36:25;1.67;;;0.60;;
57605;SDS011;43430;48.204;11.556;2023-05-10T00:38:51;2.28;;;0.57;;
57605;SDS011;43430;48.204;11.556;2023-05-10T00:41:16;1.52;;;0.60;;
57605;SDS011;43430;48.204;11.556;2023-05-10T00:43:41;2.60;;;0.50;;
57605;SDS011;43430;48.204;11.556;2023-05-10T00:46:07;1.30;;;0.50;;
57605;SDS011;43430;48.204;11.556;2023-05-10T00:48:32;1.85;;;0.65;;
57605;SDS011;43430;48.204;11.556;2023-05-10T00:50:58;2.10;;;0.50;;
57605;SDS011;43430;48.204;11.556;2023-05-10T00:53:24;1.83;;;0.63;;
57605;SDS011;43430;48.204;11.556;2023-05-10T00:55:49;1.50;;;0.30;;
57605;SDS011;43430;48.204;11.556;2023-05-10T00:58:16;3.13;;;0.30;;
57605;SDS011;43430;48.204;11.556;2023-05-10T01:00:42;2.45;;;0.52;;
57605;SDS011;43430;48.204;11.556;2023-05-10T01:03:10;1.63;;;0.40;;
57605;SDS011;43430;48.204;11.556;2023-05-10T01:05:36;1.85;;;0.50;;
57605;SDS011;43430;48.204;11.556;2023-05-10T01:08:02;1.88;;;0.28;;
57605;SDS011;43430;48.204;11.556;2023-05-10T01:10:27;3.22;;;0.30;;
57605;SDS011;43430;48.204;11.556;2023-05-10T01:12:53;3.17;;;0.40;;
57605;SDS011;43430;48.204;11.556;2023-05-10T01:15:19;2.17;;;0.35;;
57605;SDS011;43430;48.204;11.556;2023-05-10T01:17:45;1.05;;;0.30;;
57605;SDS011;43430;48.204;11.556;2023-05-10T01:20:13;1.17;;;0.30;;
57605;SDS011;43430;48.204;11.556;2023-05-10T01:33:38;0.75;;;0.20;;
57605;SDS011;43430;48.204;11.556;2023-05-10T01:36:19;1.25;;;0.20;;
57605;SDS011;43430;48.204;11.556;2023-05-10T01:44:18;0.75;;;0.20;;
57605;SDS011;43430;48.204;11.556;2023-05-10T01:46:53;1.27;;;0.20;;
57605;SDS011;43430;48.204;11.556;2023-05-10T01:49:29;3.67;;;0.20;;
57605;SDS011;43430;48.204;11.556;2023-05-10T01:52:03;1.23;;;0.20;;
57605;SDS011;43430;48.204;11.556;2023-05-10T01:54:33;2.03;;;0.30;;
57605;SDS011;43430;48.204;11.556;2023-05-10T01:57:02;1.38;;;0.30;;
57605;SDS011;43430;48.204;11.556;2023-05-10T01:59:30;0.95;;;0.25;;
57605;SDS011;43430;48.204;11.556;2023-05-10T02:02:01;1.88;;;0.20;;
57605;SDS011;43430;48.204;11.556;2023-05-10T02:04:29;1.05;;;0.20;;
57605;SDS011;43430;48.204;11.556;2023-05-10T02:06:56;2.22;;;0.30;;
57605;SDS011;43430;48.204;11.556;2023-05-10T02:09:22;1.63;;;0.20;;
57605;SDS011;43430;48.204;11.556;2023-05-10T02:11:50;1.30;;;0.20;;
57605;SDS011;43430;48.204;11.556;2023-05-10T02:14:17;0.98;;;0.20;;
57605;SDS011;43430;48.204;11.556;2023-05-10T02:16:43;0.90;;;0.20;;
57605;SDS011;43430;48.204;11.556;2023-05-10T02:19:10;1.00;;;0.20;;
57605;SDS011;43430;48.204;11.556;2023-05-10T02:21:39;0.93;;;0.20;;
57605;SDS011;43430;48.204;11.556;2023-05-10T02:24:06;2.03;;;0.30;;
57605;SDS011;43430;48.204;11.556;2023-05-10T02:26:33;0.73;;;0.20;;
57605;SDS011;43430;48.204;11.556;2023-05-10T02:29:01;2.58;;;0.13;;
57605;SDS011;43430;48.204;11.556;2023-05-10T02:31:32;0.70;;;0.20;;
57605;SDS011;43430;48.204;11.556;2023-05-10T02:34:00;0.80;;;0.25;;
57605;SDS011;43430;48.204;11.556;2023-05-10T02:36:27;0.68;;;0.10;;
57605;SDS011;43430;48.204;11.556;2023-05-10T02:38:54;0.77;;;0.17;;
57605;SDS011;43430;48.204;11.556;2023-05-10T02:41:20;0.88;;;0.10;;
57605;SDS011;43430;48.204;11.556;2023-05-10T02:43:49;0.65;;;0.20;;
57605;SDS011;43430;48.204;11.556;2023-05-10T02:46:16;2.05;;;0.30;;
57605;SDS011;43430;48.204;11.556;2023-05-10T02:48:42;1.02;;;0.20;;
57605;SDS011;43430;48.204;11.556;2023-05-10T02:51:07;1.38;;;0.20;;
57605;SDS011;43430;48.204;11.556;2023-05-10T02:53:35;1.73;;;0.20;;
57605;SDS011;43430;48.204;11.556;2023-05-10T02:56:04;0.45;;;0.10;;
57605;SDS011;43430;48.204;11.556;2023-05-10T02:58:34;1.02;;;0.20;;
57605;SDS011;43430;48.204;11.556;2023-05-10T03:00:59;0.77;;;0.20;;
57605;SDS011;43430;48.204;11.556;2023-05-10T03:03:25;1.30;;;0.40;;
57605;SDS011;43430;48.204;11.556;2023-05-10T03:05:51;0.80;;;0.20;;
57605;SDS011;43430;48.204;11.556;2023-05-10T03:08:18;0.63;;;0.28;;
57605;SDS011;43430;48.204;11.556;2023-05-10T03:10:54;0.60;;;0.20;;
57605;SDS011;43430;48.204;11.556;2023-05-10T03:13:35;1.52;;;0.28;;
57605;SDS011;43430;48.204;11.556;2023-05-10T03:16:10;1.08;;;0.20;;
57605;SDS011;43430;48.204;11.556;2023-05-10T03:21:12;3.22;;;0.55;;
57605;SDS011;43430;48.204;11.556;2023-05-10T03:23:43;2.58;;;0.30;;
57605;SDS011;43430;48.204;11.556;2023-05-10T03:26:31;0.73;;;0.20;;
57605;SDS011;43430;48.204;11.556;2023-05-10T03:28:57;1.02;;;0.20;;
57605;SDS011;43430;48.204;11.556;2023-05-10T03:31:24;0.75;;;0.20;;
57605;SDS011;43430;48.204;11.556;2023-05-10T03:33:50;0.85;;;0.20;;
57605;SDS011;43430;48.204;11.556;2023-05-10T03:36:16;1.02;;;0.30;;
57605;SDS011;43430;48.204;11.556;2023-05-10T03:38:42;1.00;;;0.20;;
57605;SDS011;43430;48.204;11.556;2023-05-10T03:41:07;0.57;;;0.10;;
57605;SDS011;43430;48.204;11.556;2023-05-10T03:43:33;0.50;;;0.20;;
57605;SDS011;43430;48.204;11.556;2023-05-10T03:45:58;1.70;;;0.20;;
57605;SDS011;43430;48.204;11.556;2023-05-10T03:48:26;0.60;;;0.20;;
57605;SDS011;43430;48.204;11.556;2023-05-10T03:50:51;1.70;;;0.20;;
57605;SDS011;43430;48.204;11.556;2023-05-10T03:53:16;2.40;;;0.20;;
57605;SDS011;43430;48.204;11.556;2023-05-10T03:55:42;0.43;;;0.10;;
57605;SDS011;43430;48.204;11.556;2023-05-10T03:58:10;0.70;;;0.20;;
57605;SDS011;43430;48.204;11.556;2023-05-10T04:00:36;0.90;;;0.30;;
57605;SDS011;43430;48.204;11.556;2023-05-10T04:03:02;1.30;;;0.28;;
57605;SDS011;43430;48.204;11.556;2023-05-10T04:05:27;0.80;;;0.20;;
57605;SDS011;43430;48.204;11.556;2023-05-10T04:07:52;0.70;;;0.13;;
57605;SDS011;43430;48.204;11.556;2023-05-10T04:10:18;0.60;;;0.20;;
57605;SDS011;43430;48.204;11.556;2023-05-10T04:12:43;0.68;;;0.20;;
57605;SDS011;43430;48.204;11.556;2023-05-10T04:15:09;0.70;;;0.20;;
57605;SDS011;43430;48.204;11.556;2023-05-10T04:17:34;3.25;;;0.20;;
57605;SDS011;43430;48.204;11.556;2023-05-10T04:20:00;0.57;;;0.10;;
57605;SDS011;43430;48.204;11.556;2023-05-10T04:22:25;1.10;;;0.20;;
57605;SDS011;43430;48.204;11.556;2023-05-10T04:24:50;0.75;;;0.20;;
57605;SDS011;43430;48.204;11.556;2023-05-10T04:27:16;0.60;;;0.20;;
57605;SDS011;43430;48.204;11.556;2023-05-10T04:29:41;0.55;;;0.20;;
57605;SDS011;43430;48.204;11.556;2023-05-10T04:32:07;3.35;;;0.30;;
57605;SDS011;43430;48.204;11.556;2023-05-10T04:34:32;2.05;;;0.20;;
57605;SDS011;43430;48.204;11.556;2023-05-10T04:36:59;2.92;;;0.30;;
57605;SDS011;43430;48.204;11.556;2023-05-10T04:39:24;1.90;;;0.20;;
57605;SDS011;43430;48.204;11.556;2023-05-10T04:41:49;0.70;;;0.20;;
57605;SDS011;43430;48.204;11.556;2023-05-10T04:44:15;1.27;;;0.22;;
57605;SDS011;43430;48.204;11.556;2023-05-10T04:46:40;1.30;;;0.20;;
57605;SDS011;43430;48.204;11.556;2023-05-10T04:49:05;1.70;;;0.20;;
57605;SDS011;43430;48.204;11.556;2023-05-10T04:51:31;1.13;;;0.10;;
57605;SDS011;43430;48.204;11.556;2023-05-10T04:53:57;0.90;;;0.20;;
57605;SDS011;43430;48.204;11.556;2023-05-10T04:56:22;0.95;;;0.20;;
57605;SDS011;43430;48.204;11.556;2023-05-10T04:58:47;1.67;;;0.10;;
57605;SDS011;43430;48.204;11.556;2023-05-10T05:01:13;0.60;;;0.10;;
57605;SDS011;43430;48.204;11.556;2023-05-10T05:03:38;1.42;;;0.20;;
57605;SDS011;43430;48.204;11.556;2023-05-10T05:06:04;0.55;;;0.15;;
57605;SDS011;43430;48.204;11.556;2023-05-10T05:08:29;0.73;;;0.20;;
57605;SDS011;43430;48.204;11.556;2023-05-10T05:10:55;0.68;;;0.10;;
57605;SDS011;43430;48.204;11.556;2023-05-10T05:13:20;1.42;;;0.20;;
57605;SDS011;43430;48.204;11.556;2023-05-10T05:15:46;1.10;;;0.10;;
57605;SDS011;43430;48.204;11.556;2023-05-10T05:18:11;0.88;;;0.13;;
57605;SDS011;43430;48.204;11.556;2023-05-10T05:20:36;1.35;;;0.10;;
57605;SDS011;43430;48.204;11.556;2023-05-10T05:23:02;1.63;;;0.10;;
57605;SDS011;43430;48.204;11.556;2023-05-10T05:25:27;0.40;;;0.10;;
57605;SDS011;43430;48.204;11.556;2023-05-10T05:27:53;1.75;;;0.10;;
57605;SDS011;43430;48.204;11.556;2023-05-10T05:30:18;0.40;;;0.10;;
57605;SDS011;43430;48.204;11.556;2023-05-10T05:32:44;0.30;;;0.10;;
57605;SDS011;43430;48.204;11.556;2023-05-10T05:35:09;0.50;;;0.10;;
57605;SDS011;43430;48.204;11.556;2023-05-10T05:37:35;2.80;;;0.10;;
57605;SDS011;43430;48.204;11.556;2023-05-10T05:40:00;0.90;;;0.15;;
57605;SDS011;43430;48.204;11.556;2023-05-10T05:42:26;2.08;;;0.20;;
57605;SDS011;43430;48.204;11.556;2023-05-10T05:44:52;0.47;;;0.15;;
57605;SDS011;43430;48.204;11.556;2023-05-10T05:47:17;0.75;;;0.10;;
57605;SDS011;43430;48.204;11.556;2023-05-10T05:49:42;0.70;;;0.20;;
57605;SDS011;43430;48.204;11.556;2023-05-10T05:52:10;1.13;;;0.20;;
57605;SDS011;43430;48.204;11.556;2023-05-10T05:54:36;0.93;;;0.20;;
57605;SDS011;43430;48.204;11.556;2023-05-10T05:57:01;1.95;;;0.20;;
57605;SDS011;43430;48.204;11.556;2023-05-10T05:59:27;0.80;;;0.20;;
57605;SDS011;43430;48.204;11.556;2023-05-10T06:01:53;1.45;;;0.28;;
57605;SDS011;43430;48.204;11.556;2023-05-10T06:04:18;2.05;;;0.22;;
57605;SDS011;43430;48.204;11.556;2023-05-10T06:06:44;1.55;;;0.20;;
57605;SDS011;43430;48.204;11.556;2023-05-10T06:09:09;0.90;;;0.20;;
57605;SDS011;43430;48.204;11.556;2023-05-10T06:11:35;0.88;;;0.30;;
57605;SDS011;43430;48.204;11.556;2023-05-10T06:14:01;1.40;;;0.30;;
57605;SDS011;43430;48.204;11.556;2023-05-10T06:16:27;0.95;;;0.30;;
57605;SDS011;43430;48.204;11.556;2023-05-10T06:18:53;3.83;;;0.35;;
57605;SDS011;43430;48.204;11.556;2023-05-10T06:21:18;1.98;;;0.30;;
57605;SDS011;43430;48.204;11.556;2023-05-10T06:23:43;1.75;;;0.50;;
57605;SDS011;43430;48.204;11.556;2023-05-10T06:26:09;1.50;;;0.32;;
57605;SDS011;43430;48.204;11.556;2023-05-10T06:28:34;2.38;;;0.38;;
57605;SDS011;43430;48.204;11.556;2023-05-10T06:31:00;1.02;;;0.30;;
57605;SDS011;43430;48.204;11.556;2023-05-10T06:33:25;2.55;;;0.30;;
57605;SDS011;43430;48.204;11.556;2023-05-10T06:35:51;2.63;;;0.20;;
57605;SDS011;43430;48.204;11.556;2023-05-10T06:38:16;2.08;;;0.43;;
57605;SDS011;43430;48.204;11.556;2023-05-10T06:40:42;1.38;;;0.43;;
57605;SDS011;43430;48.204;11.556;2023-05-10T06:43:08;2.10;;;0.30;;
57605;SDS011;43430;48.204;11.556;2023-05-10T06:45:33;2.08;;;0.30;;
57605;SDS011;43430;48.204;11.556;2023-05-10T06:47:59;2.60;;;0.40;;
57605;SDS011;43430;48.204;11.556;2023-05-10T06:50:24;2.92;;;0.30;;
57605;SDS011;43430;48.204;11.556;2023-05-10T06:52:50;1.17;;;0.30;;
57605;SDS011;43430;48.204;11.556;2023-05-10T06:55:15;1.88;;;0.32;;
57605;SDS011;43430;48.204;11.556;2023-05-10T06:57:40;1.88;;;0.35;;
57605;SDS011;43430;48.204;11.556;2023-05-10T07:00:06;1.17;;;0.30;;
57605;SDS011;43430;48.204;11.556;2023-05-10T07:02:32;1.38;;;0.50;;
57605;SDS011;43430;48.204;11.556;2023-05-10T07:04:58;3.80;;;0.40;;
57605;SDS011;43430;48.204;11.556;2023-05-10T07:07:23;1.38;;;0.30;;
57605;SDS011;43430;48.204;11.556;2023-05-10T07:09:48;1.08;;;0.28;;
57605;SDS011;43430;48.204;11.556;2023-05-10T07:12:15;2.30;;;0.40;;
57605;SDS011;43430;48.204;11.556;2023-05-10T07:14:40;1.38;;;0.40;;
57605;SDS011;43430;48.204;11.556;2023-05-10T07:17:05;2.65;;;0.57;;
57605;SDS011;43430;48.204;11.556;2023-05-10T07:19:31;1.25;;;0.30;;
57605;SDS011;43430;48.204;11.556;2023-05-10T07:21:57;2.53;;;0.50;;
57605;SDS011;43430;48.204;11.556;2023-05-10T07:24:23;1.65;;;0.30;;
57605;SDS011;43430;48.204;11.556;2023-05-10T07:26:49;1.88;;;0.40;;
57605;SDS011;43430;48.204;11.556;2023-05-10T07:29:14;2.05;;;0.30;;
57605;SDS011;43430;48.204;11.556;2023-05-10T07:31:39;1.10;;;0.30;;
57605;SDS011;43430;48.204;11.556;2023-05-10T07:34:06;0.68;;;0.20;;
57605;SDS011;43430;48.204;11.556;2023-05-10T07:36:32;4.07;;;0.45;;
57605;SDS011;43430;48.204;11.556;2023-05-10T07:38:57;1.55;;;0.30;;
57605;SDS011;43430;48.204;11.556;2023-05-10T07:41:23;1.45;;;0.32;;
57605;SDS011;43430;48.204;11.556;2023-05-10T07:43:48;0.93;;;0.30;;
57605;SDS011;43430;48.204;11.556;2023-05-10T07:46:13;1.05;;;0.20;;
57605;SDS011;43430;48.204;11.556;2023-05-10T07:48:39;1.60;;;0.20;;
57605;SDS011;43430;48.204;11.556;2023-05-10T07:51:04;2.00;;;0.30;;
57605;SDS011;43430;48.204;11.556;2023-05-10T07:53:32;1.65;;;0.30;;
57605;SDS011;43430;48.204;11.556;2023-05-10T07:55:57;0.75;;;0.30;;
57605;SDS011;43430;48.204;11.556;2023-05-10T07:58:24;1.10;;;0.22;;
57605;SDS011;43430;48.204;11.556;2023-05-10T08:00:49;1.00;;;0.20;;
57605;SDS011;43430;48.204;11.556;2023-05-10T08:03:15;2.22;;;0.38;;
57605;SDS011;43430;48.204;11.556;2023-05-10T08:05:40;1.58;;;0.30;;
57605;SDS011;43430;48.204;11.556;2023-05-10T08:08:06;0.88;;;0.20;;
57605;SDS011;43430;48.204;11.556;2023-05-10T08:10:31;1.30;;;0.20;;
57605;SDS011;43430;48.204;11.556;2023-05-10T08:12:57;1.50;;;0.35;;
57605;SDS011;43430;48.204;11.556;2023-05-10T08:15:23;1.42;;;0.50;;
57605;SDS011;43430;48.204;11.556;2023-05-10T08:17:51;1.50;;;0.40;;
57605;SDS011;43430;48.204;11.556;2023-05-10T08:20:17;0.95;;;0.32;;
57605;SDS011;43430;48.204;11.556;2023-05-10T08:22:44;1.27;;;0.28;;
57605;SDS011;43430;48.204;11.556;2023-05-10T08:25:10;0.93;;;0.30;;
57605;SDS011;43430;48.204;11.556;2023-05-10T08:27:35;3.60;;;0.30;;
57605;SDS011;43430;48.204;11.556;2023-05-10T08:30:00;1.02;;;0.20;;
57605;SDS011;43430;48.204;11.556;2023-05-10T08:32:26;0.95;;;0.20;;
57605;SDS011;43430;48.204;11.556;2023-05-10T08:34:51;1.05;;;0.20;;
57605;SDS011;43430;48.204;11.556;2023-05-10T08:37:16;1.63;;;0.10;;
57605;SDS011;43430;48.204;11.556;2023-05-10T08:39:42;0.57;;;0.15;;
57605;SDS011;43430;48.204;11.556;2023-05-10T08:42:07;0.80;;;0.30;;
57605;SDS011;43430;48.204;11.556;2023-05-10T08:44:34;1.08;;;0.32;;
57605;SDS011;43430;48.204;11.556;2023-05-10T08:47:02;1.33;;;0.30;;
57605;SDS011;43430;48.204;11.556;2023-05-10T08:49:34;6.75;;;0.22;;
57605;SDS011;43430;48.204;11.556;2023-05-10T08:52:02;1.58;;;0.20;;
57605;SDS011;43430;48.204;11.556;2023-05-10T08:54:29;2.70;;;0.22;;
57605;SDS011;43430;48.204;11.556;2023-05-10T08:56:56;1.27;;;0.30;;
57605;SDS011;43430;48.204;11.556;2023-05-10T08:59:22;1.00;;;0.30;;
57605;SDS011;43430;48.204;11.556;2023-05-10T09:01:47;0.85;;;0.20;;
57605;SDS011;43430;48.204;11.556;2023-05-10T09:04:15;0.80;;;0.20;;
57605;SDS011;43430;48.204;11.556;2023-05-10T09:06:40;1.00;;;0.20;;
57605;SDS011;43430;48.204;11.556;2023-05-10T09:09:06;0.60;;;0.20;;
57605;SDS011;43430;48.204;11.556;2023-05-10T09:11:32;0.73;;;0.20;;
57605;SDS011;43430;48.204;11.556;2023-05-10T09:13:57;0.63;;;0.20;;
57605;SDS011;43430;48.204;11.556;2023-05-10T09:16:23;0.85;;;0.20;;
57605;SDS011;43430;48.204;11.556;2023-05-10T09:18:49;1.60;;;0.20;;
57605;SDS011;43430;48.204;11.556;2023-05-10T09:21:14;1.02;;;0.20;;
57605;SDS011;43430;48.204;11.556;2023-05-10T09:23:43;0.40;;;0.15;;
57605;SDS011;43430;48.204;11.556;2023-05-10T09:26:10;1.25;;;0.20;;
57605;SDS011;43430;48.204;11.556;2023-05-10T09:28:49;2.17;;;0.20;;
57605;SDS011;43430;48.204;11.556;2023-05-10T09:31:17;1.43;;;0.30;;
57605;SDS011;43430;48.204;11.556;2023-05-10T09:33:46;1.20;;;0.20;;
57605;SDS011;43430;48.204;11.556;2023-05-10T09:36:12;1.42;;;0.20;;
57605;SDS011;43430;48.204;11.556;2023-05-10T09:38:44;2.47;;;0.55;;
57605;SDS011;43430;48.204;11.556;2023-05-10T09:41:17;1.00;;;0.20;;
57605;SDS011;43430;48.204;11.556;2023-05-10T09:43:44;1.20;;;0.30;;
57605;SDS011;43430;48.204;11.556;2023-05-10T09:46:09;1.30;;;0.47;;
57605;SDS011;43430;48.204;11.556;2023-05-10T09:48:44;0.70;;;0.20;;
57605;SDS011;43430;48.204;11.556;2023-05-10T09:51:21;2.17;;;0.20;;
57605;SDS011;43430;48.204;11.556;2023-05-10T09:53:48;1.70;;;0.20;;
57605;SDS011;43430;48.204;11.556;2023-05-10T09:56:32;0.90;;;0.30;;
57605;SDS011;43430;48.204;11.556;2023-05-10T09:59:03;0.70;;;0.28;;
57605;SDS011;43430;48.204;11.556;2023-05-10T10:01:28;1.35;;;0.20;;
57605;SDS011;43430;48.204;11.556;2023-05-10T10:03:54;1.58;;;0.30;;
57605;SDS011;43430;48.204;11.556;2023-05-10T10:06:19;1.08;;;0.10;;
57605;SDS011;43430;48.204;11.556;2023-05-10T10:08:45;1.00;;;0.30;;
57605;SDS011;43430;48.204;11.556;2023-05-10T10:11:11;2.58;;;0.22;;
57605;SDS011;43430;48.204;11.556;2023-05-10T10:13:36;0.80;;;0.20;;
57605;SDS011;43430;48.204;11.556;2023-05-10T10:16:02;0.57;;;0.20;;
57605;SDS011;43430;48.204;11.556;2023-05-10T10:18:27;1.38;;;0.20;;
57605;SDS011;43430;48.204;11.556;2023-05-10T10:20:55;0.75;;;0.20;;
57605;SDS011;43430;48.204;11.556;2023-05-10T10:23:21;1.70;;;0.20;;
57605;SDS011;43430;48.204;11.556;2023-05-10T10:25:46;0.88;;;0.20;;
57605;SDS011;43430;48.204;11.556;2023-05-10T10:28:23;0.98;;;0.28;;
57605;SDS011;43430;48.204;11.556;2023-05-10T10:30:56;0.52;;;0.13;;
57605;SDS011;43430;48.204;11.556;2023-05-10T10:38:58;0.77;;;0.22;;
57605;SDS011;43430;48.204;11.556;2023-05-10T10:57:31;0.80;;;0.30;;
57605;SDS011;43430;48.204;11.556;2023-05-10T11:02:55;0.95;;;0.20;;
57605;SDS011;43430;48.204;11.556;2023-05-10T11:05:23;1.85;;;0.20;;
57605;SDS011;43430;48.204;11.556;2023-05-10T11:07:56;3.00;;;0.20;;
57605;SDS011;43430;48.204;11.556;2023-05-10T11:10:24;1.67;;;0.30;;
57605;SDS011;43430;48.204;11.556;2023-05-10T11:12:51;1.58;;;0.30;;
57605;SDS011;43430;48.204;11.556;2023-05-10T11:15:18;2.20;;;0.20;;
57605;SDS011;43430;48.204;11.556;2023-05-10T11:17:44;1.52;;;0.30;;
57605;SDS011;43430;48.204;11.556;2023-05-10T11:20:13;0.95;;;0.22;;
57605;SDS011;43430;48.204;11.556;2023-05-10T11:22:49;2.45;;;0.30;;
57605;SDS011;43430;48.204;11.556;2023-05-10T11:25:16;1.40;;;0.40;;
57605;SDS011;43430;48.204;11.556;2023-05-10T11:27:41;5.25;;;0.65;;
57605;SDS011;43430;48.204;11.556;2023-05-10T11:30:07;1.80;;;0.60;;
57605;SDS011;43430;48.204;11.556;2023-05-10T11:32:37;1.52;;;0.47;;
57605;SDS011;43430;48.204;11.556;2023-05-10T11:35:10;4.47;;;0.70;;
57605;SDS011;43430;48.204;11.556;2023-05-10T11:37:36;1.92;;;0.47;;
57605;SDS011;43430;48.204;11.556;2023-05-10T11:40:07;1.35;;;0.57;;
57605;SDS011;43430;48.204;11.556;2023-05-10T11:42:35;3.53;;;0.80;;
57605;SDS011;43430;48.204;11.556;2023-05-10T11:45:02;2.90;;;0.80;;
57605;SDS011;43430;48.204;11.556;2023-05-10T11:47:27;1.50;;;0.57;;
57605;SDS011;43430;48.204;11.556;2023-05-10T11:49:53;3.05;;;0.95;;
57605;SDS011;43430;48.204;11.556;2023-05-10T11:52:18;3.28;;;1.30;;
57605;SDS011;43430;48.204;11.556;2023-05-10T11:54:54;5.30;;;1.67;;
57605;SDS011;43430;48.204;11.556;2023-05-10T11:57:20;5.72;;;1.40;;
57605;SDS011;43430;48.204;11.556;2023-05-10T11:59:53;5.28;;;1.13;;
57605;SDS011;43430;48.204;11.556;2023-05-10T12:02:20;2.35;;;0.75;;
57605;SDS011;43430;48.204;11.556;2023-05-10T12:04:45;3.00;;;0.43;;
57605;SDS011;43430;48.204;11.556;2023-05-10T12:07:11;4.35;;;0.50;;
57605;SDS011;43430;48.204;11.556;2023-05-10T12:09:36;2.03;;;0.43;;
57605;SDS011;43430;48.204;11.556;2023-05-10T12:12:02;1.98;;;0.60;;
57605;SDS011;43430;48.204;11.556;2023-05-10T12:14:27;2.97;;;0.55;;
57605;SDS011;43430;48.204;11.556;2023-05-10T12:16:53;2.60;;;0.65;;
57605;SDS011;43430;48.204;11.556;2023-05-10T12:19:21;3.00;;;0.80;;
57605;SDS011;43430;48.204;11.556;2023-05-10T12:21:47;2.33;;;0.73;;
57605;SDS011;43430;48.204;11.556;2023-05-10T12:24:13;3.33;;;0.80;;
57605;SDS011;43430;48.204;11.556;2023-05-10T12:26:41;3.05;;;0.55;;
57605;SDS011;43430;48.204;11.556;2023-05-10T12:29:13;2.50;;;0.55;;
57605;SDS011;43430;48.204;11.556;2023-05-10T12:31:51;2.92;;;0.75;;
57605;SDS011;43430;48.204;11.556;2023-05-10T12:34:22;4.90;;;1.30;;
57605;SDS011;43430;48.204;11.556;2023-05-10T12:36:51;2.63;;;0.80;;
57605;SDS011;43430;48.204;11.556;2023-05-10T12:39:18;3.28;;;1.00;;
57605;SDS011;43430;48.204;11.556;2023-05-10T12:41:43;2.28;;;0.75;;
57605;SDS011;43430;48.204;11.556;2023-05-10T12:44:08;2.55;;;0.35;;
57605;SDS011;43430;48.204;11.556;2023-05-10T12:46:33;0.90;;;0.20;;
57605;SDS011;43430;48.204;11.556;2023-05-10T12:48:59;0.93;;;0.20;;
57605;SDS011;43430;48.204;11.556;2023-05-10T12:51:24;1.10;;;0.22;;
57605;SDS011;43430;48.204;11.556;2023-05-10T12:53:49;0.57;;;0.10;;
57605;SDS011;43430;48.204;11.556;2023-05-10T12:56:15;1.58;;;0.10;;
57605;SDS011;43430;48.204;11.556;2023-05-10T12:58:40;0.82;;;0.20;;
57605;SDS011;43430;48.204;11.556;2023-05-10T13:01:05;0.90;;;0.20;;
57605;SDS011;43430;48.204;11.556;2023-05-10T13:03:31;1.20;;;0.17;;
57605;SDS011;43430;48.204;11.556;2023-05-10T13:05:56;0.60;;;0.20;;
57605;SDS011;43430;48.204;11.556;2023-05-10T13:08:22;1.17;;;0.20;;
57605;SDS011;43430;48.204;11.556;2023-05-10T13:10:47;1.08;;;0.25;;
57605;SDS011;43430;48.204;11.556;2023-05-10T13:13:13;1.45;;;0.20;;
57605;SDS011;43430;48.204;11.556;2023-05-10T13:15:39;2.25;;;0.20;;
57605;SDS011;43430;48.204;11.556;2023-05-10T13:18:04;0.93;;;0.20;;
57605;SDS011;43430;48.204;11.556;2023-05-10T13:20:29;3.28;;;0.40;;
57605;SDS011;43430;48.204;11.556;2023-05-10T13:22:55;1.52;;;0.30;;
57605;SDS011;43430;48.204;11.556;2023-05-10T13:25:20;1.38;;;0.22;;
57605;SDS011;43430;48.204;11.556;2023-05-10T13:27:46;1.42;;;0.20;;
57605;SDS011;43430;48.204;11.556;2023-05-10T13:30:11;2.60;;;0.25;;
57605;SDS011;43430;48.204;11.556;2023-05-10T13:32:37;3.30;;;0.60;;
57605;SDS011;43430;48.204;11.556;2023-05-10T13:35:03;1.98;;;0.30;;
57605;SDS011;43430;48.204;11.556;2023-05-10T13:37:30;2.55;;;0.40;;
57605;SDS011;43430;48.204;11.556;2023-05-10T13:39:55;0.93;;;0.20;;
57605;SDS011;43430;48.204;11.556;2023-05-10T13:42:22;1.35;;;0.30;;
57605;SDS011;43430;48.204;11.556;2023-05-10T13:44:48;4.82;;;0.60;;
57605;SDS011;43430;48.204;11.556;2023-05-10T13:47:13;2.45;;;0.40;;
57605;SDS011;43430;48.204;11.556;2023-05-10T13:49:39;2.08;;;0.40;;
57605;SDS011;43430;48.204;11.556;2023-05-10T13:52:04;3.35;;;0.40;;
57605;SDS011;43430;48.204;11.556;2023-05-10T13:54:36;1.33;;;0.40;;
57605;SDS011;43430;48.204;11.556;2023-05-10T13:57:02;3.45;;;0.63;;
57605;SDS011;43430;48.204;11.556;2023-05-10T13:59:28;2.40;;;0.50;;
57605;SDS011;43430;48.204;11.556;2023-05-10T14:01:54;2.38;;;0.75;;
57605;SDS011;43430;48.204;11.556;2023-05-10T14:04:19;4.13;;;1.08;;
57605;SDS011;43430;48.204;11.556;2023-05-10T14:06:45;2.75;;;0.98;;
57605;SDS011;43430;48.204;11.556;2023-05-10T14:09:11;2.85;;;1.00;;
57605;SDS011;43430;48.204;11.556;2023-05-10T14:11:36;2.83;;;1.10;;
57605;SDS011;43430;48.204;11.556;2023-05-10T14:14:01;3.28;;;0.60;;
57605;SDS011;43430;48.204;11.556;2023-05-10T14:16:27;6.25;;;0.90;;
57605;SDS011;43430;48.204;11.556;2023-05-10T14:18:52;2.92;;;0.50;;
57605;SDS011;43430;48.204;11.556;2023-05-10T14:21:18;3.00;;;0.68;;
57605;SDS011;43430;48.204;11.556;2023-05-10T14:23:43;1.83;;;0.47;;
57605;SDS011;43430;48.204;11.556;2023-05-10T14:26:08;2.78;;;0.55;;
57605;SDS011;43430;48.204;11.556;2023-05-10T14:28:34;1.83;;;0.45;;
57605;SDS011;43430;48.204;11.556;2023-05-10T14:30:59;2.55;;;0.57;;
57605;SDS011;43430;48.204;11.556;2023-05-10T14:33:25;3.13;;;0.47;;
57605;SDS011;43430;48.204;11.556;2023-05-10T14:35:50;1.95;;;0.60;;
57605;SDS011;43430;48.204;11.556;2023-05-10T14:38:16;1.60;;;0.38;;
57605;SDS011;43430;48.204;11.556;2023-05-10T14:40:41;2.45;;;0.25;;
57605;SDS011;43430;48.204;11.556;2023-05-10T14:43:07;0.88;;;0.20;;
57605;SDS011;43430;48.204;11.556;2023-05-10T14:45:33;2.58;;;0.45;;
57605;SDS011;43430;48.204;11.556;2023-05-10T14:47:58;2.40;;;0.40;;
57605;SDS011;43430;48.204;11.556;2023-05-10T14:50:24;2.45;;;0.30;;
57605;SDS011;43430;48.204;11.556;2023-05-10T14:52:50;2.80;;;0.50;;
57605;SDS011;43430;48.204;11.556;2023-05-10T14:55:15;1.50;;;0.20;;
57605;SDS011;43430;48.204;11.556;2023-05-10T14:57:41;1.55;;;0.20;;
57605;SDS011;43430;48.204;11.556;2023-05-10T15:00:06;0.90;;;0.20;;
57605;SDS011;43430;48.204;11.556;2023-05-10T15:02:32;1.10;;;0.20;;
57605;SDS011;43430;48.204;11.556;2023-05-10T15:04:57;2.95;;;0.50;;
57605;SDS011;43430;48.204;11.556;2023-05-10T15:07:23;1.80;;;0.40;;
57605;SDS011;43430;48.204;11.556;2023-05-10T15:09:49;3.22;;;0.40;;
57605;SDS011;43430;48.204;11.556;2023-05-10T15:12:16;3.05;;;0.30;;